createdAt,value
2023-05-02T00:02:06.161Z,101479.53
2023-05-02T00:04:35.266Z,101468.59
2023-05-02T00:07:03.144Z,101482.75
2023-05-02T00:09:31.159Z,101475.50
2023-05-02T00:11:58.754Z,101481.09
2023-05-02T00:14:26.668Z,101488.59
2023-05-02T00:16:54.286Z,101501.75
2023-05-02T00:19:21.991Z,101485.13
2023-05-02T00:21:51.087Z,101486.28
2023-05-02T00:24:19.058Z,101508.06
2023-05-02T00:26:46.765Z,101504.91
2023-05-02T00:29:14.416Z,101501.41
2023-05-02T00:31:42.214Z,101486.44
2023-05-02T00:34:09.908Z,101498.94
2023-05-02T00:36:37.512Z,101505.56
2023-05-02T00:39:06.896Z,101501.25
2023-05-02T00:41:34.565Z,101499.06
2023-05-02T00:44:02.209Z,101504.72
2023-05-02T00:46:30.596Z,101507.16
2023-05-02T00:48:58.284Z,101521.75
2023-05-02T00:51:26.175Z,101522.41
2023-05-02T00:53:53.903Z,101536.19
2023-05-02T00:56:22.830Z,101545.66
2023-05-02T00:58:50.692Z,101541.66
2023-05-02T01:01:34.038Z,101544.72
2023-05-02T01:04:11.622Z,101556.84
2023-05-02T01:06:54.569Z,101558.41
2023-05-02T01:09:31.991Z,101556.34
2023-05-02T01:12:04.340Z,101565.81
2023-05-02T01:14:36.134Z,101571.84
2023-05-02T01:17:08.209Z,101572.97
2023-05-02T01:19:39.561Z,101577.75
2023-05-02T01:22:09.709Z,101581.72
2023-05-02T01:24:43.807Z,101579.91
2023-05-02T01:27:25.801Z,101585.06
2023-05-02T01:29:57.976Z,101595.13
2023-05-02T01:32:27.341Z,101606.06
2023-05-02T01:34:57.224Z,101604.38
2023-05-02T01:37:26.061Z,101606.06
2023-05-02T01:39:55.178Z,101611.91
2023-05-02T01:42:24.720Z,101618.03
2023-05-02T01:44:57.389Z,101621.00
2023-05-02T01:47:26.672Z,101619.63
2023-05-02T01:49:54.439Z,101623.25
2023-05-02T01:52:23.861Z,101625.69
2023-05-02T01:54:53.002Z,101625.41
2023-05-02T01:57:21.041Z,101633.19
2023-05-02T01:59:50.762Z,101620.84
2023-05-02T02:02:20.737Z,101633.72
2023-05-02T02:04:49.755Z,101644.22
2023-05-02T02:07:17.552Z,101641.44
2023-05-02T02:09:45.217Z,101648.25
2023-05-02T02:12:16.839Z,101651.13
2023-05-02T02:14:50.980Z,101666.19
2023-05-02T02:17:27.969Z,101648.22
2023-05-02T02:19:57.982Z,101654.41
2023-05-02T02:22:29.243Z,101656.94
2023-05-02T02:24:58.390Z,101658.59
2023-05-02T02:27:26.196Z,101666.16
2023-05-02T02:29:53.871Z,101671.50
2023-05-02T02:32:22.877Z,101685.59
2023-05-02T02:34:50.521Z,101661.50
2023-05-02T02:37:21.086Z,101681.00
2023-05-02T02:39:57.042Z,101678.84
2023-05-02T02:42:36.125Z,101694.19
2023-05-02T02:45:10.344Z,101692.53
2023-05-02T02:47:45.116Z,101703.25
2023-05-02T02:50:24.241Z,101700.06
2023-05-02T02:52:56.512Z,101704.28
2023-05-02T02:55:41.630Z,101702.88
2023-05-02T02:58:21.082Z,101701.50
2023-05-02T03:00:50.410Z,101709.31
2023-05-02T03:03:21.470Z,101709.19
2023-05-02T03:05:50.110Z,101707.69
2023-05-02T03:08:17.812Z,101716.03
2023-05-02T03:10:45.517Z,101725.09
2023-05-02T03:13:13.124Z,101720.19
2023-05-02T03:16:19.671Z,101729.50
2023-05-02T03:18:48.649Z,101730.91
2023-05-02T03:21:16.327Z,101724.53
2023-05-02T03:23:43.891Z,101728.13
2023-05-02T03:26:11.898Z,101733.56
2023-05-02T03:28:39.655Z,101734.00
2023-05-02T03:31:07.290Z,101735.81
2023-05-02T03:33:34.933Z,101734.97
2023-05-02T03:36:04.005Z,101729.38
2023-05-02T03:38:31.849Z,101736.06
2023-05-02T03:40:59.506Z,101741.09
2023-05-02T03:43:27.066Z,101742.88
2023-05-02T03:45:54.682Z,101741.63
2023-05-02T03:48:22.441Z,101746.63
2023-05-02T03:50:51.562Z,101754.28
2023-05-02T03:53:20.594Z,101753.16
2023-05-02T03:55:48.181Z,101749.81
2023-05-02T03:58:16.071Z,101751.94
2023-05-02T04:00:43.689Z,101758.88
2023-05-02T04:03:11.709Z,101764.16
2023-05-02T04:05:39.364Z,101770.03
2023-05-02T04:08:07.236Z,101763.03
2023-05-02T04:10:36.268Z,101775.16
2023-05-02T04:13:04.452Z,101771.38
2023-05-02T04:15:32.422Z,101774.16
2023-05-02T04:18:00.301Z,101778.44
2023-05-02T04:20:28.132Z,101777.88
2023-05-02T04:22:55.717Z,101791.00
2023-05-02T04:25:23.343Z,101778.31
2023-05-02T04:27:52.256Z,101784.72
2023-05-02T04:30:20.511Z,101782.38
2023-05-02T04:32:48.130Z,101793.66
2023-05-02T04:35:16.758Z,101785.81
2023-05-02T04:37:44.787Z,101791.97
2023-05-02T04:40:13.567Z,101787.38
2023-05-02T04:42:41.190Z,101793.75
2023-05-02T04:45:10.708Z,101795.25
2023-05-02T04:47:38.332Z,101801.69
2023-05-02T04:50:07.186Z,101814.91
2023-05-02T04:52:34.764Z,101812.53
2023-05-02T04:55:02.441Z,101805.41
2023-05-02T04:57:30.044Z,101813.47
2023-05-02T04:59:57.724Z,101820.56
2023-05-02T05:02:27.096Z,101825.88
2023-05-02T05:04:54.904Z,101829.66
2023-05-02T05:07:22.557Z,101831.75
2023-05-02T05:09:51.296Z,101849.75
2023-05-02T05:12:20.859Z,101847.78
2023-05-02T05:14:49.853Z,101850.59
2023-05-02T05:17:18.156Z,101857.16
2023-05-02T05:19:47.168Z,101854.22
2023-05-02T05:22:15.459Z,101856.84
2023-05-02T05:24:43.088Z,101865.34
2023-05-02T05:27:11.249Z,101867.31
2023-05-02T05:29:38.865Z,101877.63
2023-05-02T05:32:06.969Z,101873.13
2023-05-02T05:34:34.655Z,101874.13
2023-05-02T05:37:03.720Z,101876.50
2023-05-02T05:39:31.488Z,101884.00
2023-05-02T05:42:00.665Z,101893.09
2023-05-02T05:44:28.249Z,101890.28
2023-05-02T05:46:56.111Z,101889.16
2023-05-02T05:49:24.276Z,101896.41
2023-05-02T05:51:52.145Z,101900.00
2023-05-02T05:54:21.167Z,101898.34
2023-05-02T05:56:48.974Z,101909.66
2023-05-02T05:59:16.684Z,101896.09
2023-05-02T06:01:44.332Z,101915.69
2023-05-02T06:04:12.181Z,101924.44
2023-05-02T06:06:39.950Z,101927.06
2023-05-02T06:09:07.577Z,101914.59
2023-05-02T06:11:37.865Z,101922.00
2023-05-02T06:14:05.543Z,101928.69
2023-05-02T06:16:33.241Z,101933.38
2023-05-02T06:19:00.857Z,101928.88
2023-05-02T06:21:28.611Z,101933.31
2023-05-02T06:23:56.219Z,101937.09
2023-05-02T06:26:24.072Z,101946.75
2023-05-02T06:28:53.046Z,101939.94
2023-05-02T06:31:20.803Z,101949.44
2023-05-02T06:33:48.600Z,101946.19
2023-05-02T06:36:16.186Z,101947.72
2023-05-02T06:38:43.809Z,101951.00
2023-05-02T06:41:17.224Z,101960.34
2023-05-02T06:43:45.763Z,101947.88
2023-05-02T06:46:15.302Z,101965.84
2023-05-02T06:48:42.939Z,101960.63
2023-05-02T06:51:10.944Z,101961.38
2023-05-02T06:53:38.573Z,101972.84
2023-05-02T06:56:07.055Z,101978.41
2023-05-02T06:58:34.663Z,101977.88
2023-05-02T07:01:02.322Z,101970.81
2023-05-02T07:03:31.278Z,101982.66
2023-05-02T07:05:59.052Z,101991.03
2023-05-02T07:08:26.687Z,102000.44
2023-05-02T07:10:54.295Z,101999.69
2023-05-02T07:13:21.924Z,102002.47
2023-05-02T07:15:49.556Z,102011.69
2023-05-02T07:18:18.266Z,102007.22
2023-05-02T07:20:47.462Z,101999.59
2023-05-02T07:23:15.096Z,102011.97
2023-05-02T07:25:43.060Z,102022.72
2023-05-02T07:28:11.038Z,102026.06
2023-05-02T07:30:38.729Z,102022.22
2023-05-02T07:33:06.378Z,102024.34
2023-05-02T07:35:34.065Z,102026.38
2023-05-02T07:38:02.981Z,102028.63
2023-05-02T07:40:30.655Z,102027.84
2023-05-02T07:43:02.049Z,102043.28
2023-05-02T07:45:29.977Z,102046.69
2023-05-02T07:47:57.594Z,102044.56
2023-05-02T07:50:25.903Z,102048.72
2023-05-02T07:52:53.701Z,102039.22
2023-05-02T07:55:23.131Z,102042.59
2023-05-02T07:57:50.806Z,102052.63
2023-05-02T08:00:19.217Z,102054.16
2023-05-02T08:02:47.086Z,102058.31
2023-05-02T08:05:15.048Z,102058.31
2023-05-02T08:07:42.773Z,102050.81
2023-05-02T08:10:11.561Z,102059.34
2023-05-02T08:12:41.228Z,102061.38
2023-05-02T08:15:11.313Z,102062.34
2023-05-02T08:17:39.118Z,102070.78
2023-05-02T08:20:07.953Z,102048.38
2023-05-02T08:22:35.616Z,102070.56
2023-05-02T08:25:03.226Z,102078.19
2023-05-02T08:27:30.832Z,102067.97
2023-05-02T08:30:01.059Z,102079.47
2023-05-02T08:32:29.998Z,102079.78
2023-05-02T08:34:57.880Z,102088.34
2023-05-02T08:37:26.117Z,102086.38
2023-05-02T08:39:53.739Z,102107.16
2023-05-02T08:42:21.603Z,102101.50
2023-05-02T08:44:50.138Z,102107.66
2023-05-02T08:47:21.524Z,102110.34
2023-05-02T08:49:51.055Z,102105.88
2023-05-02T08:52:21.331Z,102108.53
2023-05-02T08:54:51.503Z,102119.97
2023-05-02T08:57:19.095Z,102121.16
2023-05-02T08:59:46.690Z,102130.31
2023-05-02T09:02:24.965Z,102123.38
2023-05-02T09:04:56.181Z,102131.66
2023-05-02T09:07:23.873Z,102136.56
2023-05-02T09:09:51.493Z,102135.56
2023-05-02T09:12:26.437Z,102134.66
2023-05-02T09:15:12.706Z,102148.63
2023-05-02T09:17:43.500Z,102158.72
2023-05-02T09:20:12.587Z,102156.53
2023-05-02T09:22:40.500Z,102151.81
2023-05-02T09:25:09.123Z,102153.81
2023-05-02T09:27:54.284Z,102157.53
2023-05-02T09:30:24.064Z,102172.13
2023-05-02T09:32:55.478Z,102170.09
2023-05-02T09:35:26.886Z,102166.78
2023-05-02T09:37:55.724Z,102160.38
2023-05-02T09:40:24.395Z,102158.34
2023-05-02T09:42:52.467Z,102165.53
2023-05-02T09:45:24.158Z,102161.31
2023-05-02T09:47:54.308Z,102157.03
2023-05-02T09:50:34.916Z,102171.56
2023-05-02T09:53:04.336Z,102184.34
2023-05-02T09:55:32.278Z,102177.66
2023-05-02T09:58:00.819Z,102171.88
2023-05-02T10:00:42.333Z,102186.09
2023-05-02T10:03:11.965Z,102168.56
2023-05-02T10:05:41.163Z,102164.75
2023-05-02T10:08:10.305Z,102166.81
2023-05-02T10:10:39.662Z,102174.25
2023-05-02T10:13:09.176Z,102184.25
2023-05-02T10:15:43.582Z,102173.22
2023-05-02T10:18:16.669Z,102190.09
2023-05-02T10:20:48.580Z,102183.22
2023-05-02T10:23:18.472Z,102175.56
2023-05-02T10:25:46.967Z,102184.28
2023-05-02T10:28:15.728Z,102191.25
2023-05-02T10:30:44.400Z,102200.38
2023-05-02T10:33:17.190Z,102207.53
2023-05-02T10:35:46.846Z,102209.47
2023-05-02T10:38:18.047Z,102199.47
2023-05-02T10:40:55.723Z,102219.63
2023-05-02T10:43:26.167Z,102218.25
2023-05-02T10:45:55.148Z,102224.59
2023-05-02T10:48:26.630Z,102219.47
2023-05-02T10:50:55.951Z,102222.00
2023-05-02T10:53:25.946Z,102223.00
2023-05-02T10:56:13.950Z,102218.41
2023-05-02T10:58:42.374Z,102233.69
2023-05-02T11:01:42.127Z,102229.19
2023-05-02T11:04:11.850Z,102216.03
2023-05-02T11:07:13.077Z,102226.97
2023-05-02T11:09:40.948Z,102227.84
2023-05-02T11:12:08.662Z,102236.03
2023-05-02T11:14:48.510Z,102237.41
2023-05-02T11:17:16.754Z,102228.59
2023-05-02T11:20:30.102Z,102236.56
2023-05-02T11:23:00.889Z,102243.69
2023-05-02T11:25:36.877Z,102241.88
2023-05-02T11:28:07.494Z,102246.59
2023-05-02T11:30:40.222Z,102250.25
2023-05-02T11:33:19.833Z,102249.72
2023-05-02T11:35:49.108Z,102256.72
2023-05-02T11:38:21.591Z,102271.09
2023-05-02T11:40:57.731Z,102268.53
2023-05-02T11:43:28.713Z,102277.06
2023-05-02T11:45:59.848Z,102285.84
2023-05-02T11:48:28.507Z,102272.75
2023-05-02T11:50:58.375Z,102290.66
2023-05-02T11:53:29.730Z,102283.59
2023-05-02T11:55:59.279Z,102296.09
2023-05-02T11:58:29.686Z,102285.44
2023-05-02T12:00:58.027Z,102286.16
2023-05-02T12:03:30.283Z,102273.78
2023-05-02T12:05:59.298Z,102276.19
2023-05-02T12:08:29.888Z,102277.81
2023-05-02T12:10:58.136Z,102288.72
2023-05-02T12:13:27.508Z,102277.72
2023-05-02T12:15:56.174Z,102289.91
2023-05-02T12:18:26.998Z,102293.38
2023-05-02T12:20:56.122Z,102299.00
2023-05-02T12:23:27.230Z,102299.34
2023-05-02T12:25:56.260Z,102297.25
2023-05-02T12:28:24.340Z,102308.16
2023-05-02T12:30:52.982Z,102303.81
2023-05-02T12:33:20.798Z,102314.31
2023-05-02T12:35:48.988Z,102325.41
2023-05-02T12:38:18.257Z,102317.97
2023-05-02T12:40:50.588Z,102310.81
2023-05-02T12:43:20.293Z,102320.59
2023-05-02T12:45:49.671Z,102325.19
2023-05-02T12:48:25.002Z,102342.13
2023-05-02T12:50:53.969Z,102337.28
2023-05-02T12:53:41.665Z,102334.53
2023-05-02T12:56:10.302Z,102321.03
2023-05-02T12:58:47.504Z,102330.28
2023-05-02T13:01:16.062Z,102343.63
2023-05-02T13:03:44.495Z,102345.47
2023-05-02T13:06:12.285Z,102341.44
2023-05-02T13:08:40.115Z,102347.88
2023-05-02T13:11:07.803Z,102352.06
2023-05-02T13:13:35.621Z,102353.72
2023-05-02T13:16:05.031Z,102359.19
2023-05-02T13:18:32.883Z,102346.63
2023-05-02T13:21:00.495Z,102344.94
2023-05-02T13:23:28.060Z,102362.50
2023-05-02T13:25:55.736Z,102361.19
2023-05-02T13:28:23.490Z,102371.19
2023-05-02T13:30:51.188Z,102364.00
2023-05-02T13:33:20.217Z,102361.75
2023-05-02T13:35:47.898Z,102362.38
2023-05-02T13:38:15.653Z,102370.41
2023-05-02T13:40:43.294Z,102370.72
2023-05-02T13:43:10.981Z,102369.00
2023-05-02T13:45:38.633Z,102377.75
2023-05-02T13:48:07.085Z,102385.72
2023-05-02T13:50:37.300Z,102383.31
2023-05-02T13:53:04.988Z,102388.50
2023-05-02T13:55:32.671Z,102385.25
2023-05-02T13:58:00.235Z,102383.41
2023-05-02T14:00:29.117Z,102382.75
2023-05-02T14:02:56.909Z,102379.63
2023-05-02T14:05:24.663Z,102383.53
2023-05-02T14:07:53.650Z,102387.75
2023-05-02T14:10:21.261Z,102392.56
2023-05-02T14:12:49.202Z,102394.47
2023-05-02T14:15:17.111Z,102392.16
2023-05-02T14:17:44.838Z,102400.84
2023-05-02T14:20:13.102Z,102401.00
2023-05-02T14:22:40.858Z,102396.00
2023-05-02T14:25:10.528Z,102407.88
2023-05-02T14:27:38.153Z,102402.72
2023-05-02T14:30:07.293Z,102400.34
2023-05-02T14:32:35.036Z,102413.69
2023-05-02T14:35:02.850Z,102414.31
2023-05-02T14:37:31.078Z,102419.06
2023-05-02T14:39:59.287Z,102416.88
2023-05-02T14:42:28.527Z,102422.56
2023-05-02T14:44:58.930Z,102417.03
2023-05-02T14:47:30.832Z,102425.50
2023-05-02T14:49:58.781Z,102419.13
2023-05-02T14:52:26.898Z,102412.34
2023-05-02T14:54:54.641Z,102432.84
2023-05-02T14:57:22.542Z,102430.75
2023-05-02T14:59:51.497Z,102433.97
2023-05-02T15:02:19.156Z,102444.84
2023-05-02T15:04:46.845Z,102440.16
2023-05-02T15:07:14.911Z,102441.69
2023-05-02T15:09:42.783Z,102447.44
2023-05-02T15:12:10.860Z,102440.69
2023-05-02T15:14:38.468Z,102452.41
2023-05-02T15:17:07.851Z,102440.63
2023-05-02T15:19:35.495Z,102448.41
2023-05-02T15:22:03.125Z,102453.78
2023-05-02T15:24:30.829Z,102450.59
2023-05-02T15:26:58.644Z,102456.81
2023-05-02T15:29:26.366Z,102452.69
2023-05-02T15:31:55.674Z,102457.97
2023-05-02T15:34:24.698Z,102468.53
2023-05-02T15:36:52.382Z,102466.31
2023-05-02T15:39:20.024Z,102461.53
2023-05-02T15:41:47.825Z,102465.00
2023-05-02T15:44:15.479Z,102466.66
2023-05-02T15:46:46.713Z,102463.50
2023-05-02T15:49:14.978Z,102473.03
2023-05-02T15:51:43.908Z,102467.47
2023-05-02T15:54:11.483Z,102471.00
2023-05-02T15:56:39.473Z,102475.38
2023-05-02T15:59:07.060Z,102482.44
2023-05-02T16:01:34.639Z,102480.84
2023-05-02T16:04:02.325Z,102486.66
2023-05-02T16:06:30.526Z,102472.28
2023-05-02T16:09:01.042Z,102488.75
2023-05-02T16:11:29.795Z,102488.03
2023-05-02T16:13:57.478Z,102492.59
2023-05-02T16:16:25.239Z,102494.88
2023-05-02T16:18:52.856Z,102500.88
2023-05-02T16:21:20.596Z,102488.16
2023-05-02T16:23:48.681Z,102497.28
2023-05-02T16:26:17.717Z,102503.44
2023-05-02T16:28:45.353Z,102501.81
2023-05-02T16:31:14.863Z,102503.16
2023-05-02T16:33:42.916Z,102498.81
2023-05-02T16:36:11.015Z,102495.78
2023-05-02T16:38:38.604Z,102496.34
2023-05-02T16:41:07.012Z,102503.50
2023-05-02T16:43:37.503Z,102488.41
2023-05-02T16:46:07.459Z,102497.53
2023-05-02T16:48:35.771Z,102500.56
2023-05-02T16:51:04.428Z,102507.63
2023-05-02T16:53:32.586Z,102497.75
2023-05-02T16:56:00.369Z,102505.75
2023-05-02T16:58:29.290Z,102496.47
2023-05-02T17:01:00.023Z,102520.53
2023-05-02T17:03:27.792Z,102499.72
2023-05-02T17:05:58.798Z,102524.16
2023-05-02T17:08:26.369Z,102514.84
2023-05-02T17:10:53.973Z,102523.47
2023-05-02T17:13:21.536Z,102517.31
2023-05-02T17:15:49.765Z,102514.09
2023-05-02T17:18:18.728Z,102524.56
2023-05-02T17:20:47.651Z,102521.50
2023-05-02T17:23:15.997Z,102522.47
2023-05-02T17:25:43.704Z,102528.94
2023-05-02T17:28:11.428Z,102523.59
2023-05-02T17:30:39.056Z,102519.97
2023-05-02T17:33:06.936Z,102529.09
2023-05-02T17:35:35.929Z,102524.56
2023-05-02T17:38:03.575Z,102538.31
2023-05-02T17:40:31.241Z,102525.41
2023-05-02T17:42:59.309Z,102524.91
2023-05-02T17:45:28.866Z,102533.78
2023-05-02T17:47:56.566Z,102536.16
2023-05-02T17:50:24.351Z,102531.28
2023-05-02T17:52:53.335Z,102527.50
2023-05-02T17:55:21.090Z,102536.72
2023-05-02T17:57:49.278Z,102532.53
2023-05-02T18:00:18.740Z,102534.78
2023-05-02T18:02:46.419Z,102532.41
2023-05-02T18:05:14.821Z,102546.09
2023-05-02T18:07:42.468Z,102547.09
2023-05-02T18:10:11.511Z,102549.19
2023-05-02T18:12:39.122Z,102544.72
2023-05-02T18:15:09.008Z,102548.34
2023-05-02T18:17:37.972Z,102550.59
2023-05-02T18:20:07.049Z,102550.31
2023-05-02T18:22:34.760Z,102554.34
2023-05-02T18:25:02.731Z,102555.47
2023-05-02T18:27:31.984Z,102558.50
2023-05-02T18:29:59.750Z,102559.31
2023-05-02T18:32:27.391Z,102563.09
2023-05-02T18:34:55.035Z,102567.56
2023-05-02T18:37:30.817Z,102570.38
2023-05-02T18:39:58.661Z,102567.28
2023-05-02T18:42:26.322Z,102565.75
2023-05-02T18:44:55.285Z,102569.78
2023-05-02T18:47:24.477Z,102564.47
2023-05-02T18:49:52.164Z,102570.63
2023-05-02T18:52:19.793Z,102563.50
2023-05-02T18:54:47.514Z,102574.00
2023-05-02T18:57:15.196Z,102588.66
2023-05-02T18:59:42.806Z,102590.06
2023-05-02T19:02:11.749Z,102593.13
2023-05-02T19:04:39.355Z,102595.00
2023-05-02T19:07:07.119Z,102597.66
2023-05-02T19:09:34.711Z,102598.97
2023-05-02T19:12:02.296Z,102604.91
2023-05-02T19:14:30.617Z,102613.16
2023-05-02T19:16:58.219Z,102609.78
2023-05-02T19:19:27.201Z,102608.25
2023-05-02T19:21:54.871Z,102620.22
2023-05-02T19:24:22.505Z,102627.34
2023-05-02T19:26:50.193Z,102629.56
2023-05-02T19:29:17.820Z,102636.66
2023-05-02T19:31:46.333Z,102634.53
2023-05-02T19:34:14.109Z,102641.31
2023-05-02T19:36:43.436Z,102634.56
2023-05-02T19:39:13.061Z,102636.53
2023-05-02T19:41:42.445Z,102633.28
2023-05-02T19:44:10.120Z,102640.28
2023-05-02T19:46:37.760Z,102634.38
2023-05-02T19:49:05.527Z,102637.03
2023-05-02T19:51:35.171Z,102644.53
2023-05-02T19:54:04.188Z,102651.91
2023-05-02T19:56:32.151Z,102643.94
2023-05-02T19:59:01.134Z,102651.19
2023-05-02T20:01:29.508Z,102649.25
2023-05-02T20:03:57.207Z,102645.41
2023-05-02T20:06:25.538Z,102656.41
2023-05-02T20:08:53.226Z,102652.66
2023-05-02T20:11:22.526Z,102654.84
2023-05-02T20:13:50.180Z,102668.38
2023-05-02T20:16:18.064Z,102669.56
2023-05-02T20:18:45.692Z,102676.31
2023-05-02T20:21:13.382Z,102673.91
2023-05-02T20:23:43.223Z,102675.25
2023-05-02T20:26:10.884Z,102667.41
2023-05-02T20:28:39.872Z,102670.47
2023-05-02T20:31:07.955Z,102672.38
2023-05-02T20:33:44.551Z,102669.25
2023-05-02T20:36:14.793Z,102670.09
2023-05-02T20:38:44.501Z,102675.50
2023-05-02T20:41:13.875Z,102669.41
2023-05-02T20:43:44.983Z,102671.06
2023-05-02T20:46:16.370Z,102673.25
2023-05-02T20:48:44.149Z,102671.94
2023-05-02T20:51:12.093Z,102675.91
2023-05-02T20:53:40.342Z,102682.66
2023-05-02T20:56:08.259Z,102686.50
2023-05-02T20:58:35.816Z,102684.94
2023-05-02T21:01:04.888Z,102688.94
2023-05-02T21:03:36.410Z,102690.63
2023-05-02T21:06:04.208Z,102685.81
2023-05-02T21:08:31.866Z,102683.41
2023-05-02T21:10:59.819Z,102691.84
2023-05-02T21:13:27.382Z,102685.06
2023-05-02T21:15:55.034Z,102687.25
2023-05-02T21:18:24.060Z,102684.97
2023-05-02T21:20:51.816Z,102694.13
2023-05-02T21:23:19.445Z,102697.84
2023-05-02T21:25:47.045Z,102693.88
2023-05-02T21:28:14.628Z,102702.88
2023-05-02T21:30:42.257Z,102697.00
2023-05-02T21:33:10.398Z,102699.00
2023-05-02T21:35:39.395Z,102701.03
2023-05-02T21:38:07.586Z,102697.69
2023-05-02T21:40:37.255Z,102707.66
2023-05-02T21:43:04.974Z,102711.47
2023-05-02T21:45:32.761Z,102711.72
2023-05-02T21:48:01.308Z,102705.81
2023-05-02T21:50:29.360Z,102713.03
2023-05-02T21:52:58.356Z,102708.34
2023-05-02T21:55:25.907Z,102709.28
2023-05-02T21:57:53.472Z,102711.22
2023-05-02T22:00:21.681Z,102710.59
2023-05-02T22:02:49.447Z,102706.25
2023-05-02T22:05:17.318Z,102705.75
2023-05-02T22:07:44.922Z,102712.84
2023-05-02T22:10:13.979Z,102708.63
2023-05-02T22:12:41.938Z,102704.44
2023-05-02T22:15:10.936Z,102716.81
2023-05-02T22:17:42.438Z,102718.59
2023-05-02T22:20:12.959Z,102718.72
2023-05-02T22:22:41.319Z,102721.59
2023-05-02T22:25:09.715Z,102720.84
2023-05-02T22:27:38.679Z,102721.09
2023-05-02T22:30:08.028Z,102720.38
2023-05-02T22:32:36.007Z,102733.81
2023-05-02T22:35:04.344Z,102721.75
2023-05-02T22:37:31.940Z,102737.03
2023-05-02T22:39:59.923Z,102732.91
2023-05-02T22:42:27.764Z,102737.81
2023-05-02T22:44:56.923Z,102738.03
2023-05-02T22:47:25.106Z,102730.56
2023-05-02T22:49:54.326Z,102727.50
2023-05-02T22:52:22.503Z,102734.94
2023-05-02T22:54:50.084Z,102732.63
2023-05-02T22:57:17.698Z,102735.72
2023-05-02T22:59:45.337Z,102733.38
2023-05-02T23:02:14.389Z,102734.69
2023-05-02T23:04:42.120Z,102736.69
2023-05-02T23:07:09.724Z,102737.03
2023-05-02T23:09:37.593Z,102738.28
2023-05-02T23:12:05.986Z,102735.03
2023-05-02T23:14:33.758Z,102744.25
2023-05-02T23:17:03.057Z,102745.28
2023-05-02T23:19:32.191Z,102746.47
2023-05-02T23:21:59.902Z,102748.47
2023-05-02T23:24:27.677Z,102738.13
2023-05-02T23:26:55.448Z,102741.91
2023-05-02T23:29:23.223Z,102735.19
2023-05-02T23:31:52.424Z,102740.47
2023-05-02T23:34:21.390Z,102742.56
2023-05-02T23:36:52.312Z,102750.81
2023-05-02T23:39:19.998Z,102753.53
2023-05-02T23:41:47.691Z,102756.59
2023-05-02T23:44:15.392Z,102754.16
2023-05-02T23:46:43.018Z,102764.13
2023-05-02T23:49:10.632Z,102756.50
2023-05-02T23:51:38.645Z,102757.56
2023-05-02T23:54:08.266Z,102758.63
2023-05-02T23:56:35.887Z,102764.94
2023-05-02T23:59:03.548Z,102761.53
